sensor_id;sensor_type;location;lat;lon;timestamp;pressure;altitude;pressure_sealevel;temperature
71960;BMP280;59832;51.146;14.024;2022-08-21T00:01:34;98427.72;;;17.79
71960;BMP280;59832;51.146;14.024;2022-08-21T00:04:06;98424.38;;;17.82
71960;BMP280;59832;51.146;14.024;2022-08-21T00:06:33;98428.84;;;17.78
71960;BMP280;59832;51.146;14.024;2022-08-21T00:09:01;98428.53;;;17.73
71960;BMP280;59832;51.146;14.024;2022-08-21T00:11:31;98425.97;;;17.73
71960;BMP280;59832;51.146;14.024;2022-08-21T00:13:58;98419.41;;;17.68
71960;BMP280;59832;51.146;14.024;2022-08-21T00:16:25;98417.22;;;17.67
71960;BMP280;59832;51.146;14.024;2022-08-21T00:18:52;98420.84;;;17.69
71960;BMP280;59832;51.146;14.024;2022-08-21T00:21:19;98421.66;;;17.63
71960;BMP280;59832;51.146;14.024;2022-08-21T00:23:45;98423.47;;;17.66
71960;BMP280;59832;51.146;14.024;2022-08-21T00:26:12;98419.06;;;17.66
71960;BMP280;59832;51.146;14.024;2022-08-21T00:28:39;98418.28;;;17.69
71960;BMP280;59832;51.146;14.024;2022-08-21T00:31:05;98426.69;;;17.73
71960;BMP280;59832;51.146;14.024;2022-08-21T00:33:32;98419.72;;;17.74
71960;BMP280;59832;51.146;14.024;2022-08-21T00:36:00;98414.59;;;17.70
71960;BMP280;59832;51.146;14.024;2022-08-21T00:38:26;98416.09;;;17.68
71960;BMP280;59832;51.146;14.024;2022-08-21T00:40:54;98422.38;;;17.67
71960;BMP280;59832;51.146;14.024;2022-08-21T00:43:23;98424.59;;;17.65
71960;BMP280;59832;51.146;14.024;2022-08-21T00:45:50;98422.38;;;17.67
71960;BMP280;59832;51.146;14.024;2022-08-21T00:48:17;98419.41;;;17.68
71960;BMP280;59832;51.146;14.024;2022-08-21T00:50:46;98421.66;;;17.66
71960;BMP280;59832;51.146;14.024;2022-08-21T00:53:14;98420.53;;;17.64
71960;BMP280;59832;51.146;14.024;2022-08-21T00:55:41;98431.56;;;17.64
71960;BMP280;59832;51.146;14.024;2022-08-21T00:58:08;98426.00;;;17.69
71960;BMP280;59832;51.146;14.024;2022-08-21T01:00:37;98423.03;;;17.74
71960;BMP280;59832;51.146;14.024;2022-08-21T01:03:09;98429.66;;;17.72
71960;BMP280;59832;51.146;14.024;2022-08-21T01:05:39;98426.69;;;17.73
71960;BMP280;59832;51.146;14.024;2022-08-21T01:08:06;98422.31;;;17.70
71960;BMP280;59832;51.146;14.024;2022-08-21T01:10:34;98422.31;;;17.70
71960;BMP280;59832;51.146;14.024;2022-08-21T01:13:03;98425.28;;;17.69
71960;BMP280;59832;51.146;14.024;2022-08-21T01:15:32;98428.94;;;17.71
71960;BMP280;59832;51.146;14.024;2022-08-21T01:17:59;98424.53;;;17.72
71960;BMP280;59832;51.146;14.024;2022-08-21T01:20:26;98418.97;;;17.73
71960;BMP280;59832;51.146;14.024;2022-08-21T01:22:58;98415.22;;;17.78
71960;BMP280;59832;51.146;14.024;2022-08-21T01:25:24;98427.44;;;17.74
71960;BMP280;59832;51.146;14.024;2022-08-21T01:27:51;98426.72;;;17.70
71960;BMP280;59832;51.146;14.024;2022-08-21T01:30:18;98430.81;;;17.67
71960;BMP280;59832;51.146;14.024;2022-08-21T01:32:45;98423.09;;;17.67
71960;BMP280;59832;51.146;14.024;2022-08-21T01:35:13;98429.75;;;17.65
71960;BMP280;59832;51.146;14.024;2022-08-21T01:37:40;98427.59;;;17.60
71960;BMP280;59832;51.146;14.024;2022-08-21T01:40:07;98417.97;;;17.64
71960;BMP280;59832;51.146;14.024;2022-08-21T01:42:34;98423.22;;;17.57
71960;BMP280;59832;51.146;14.024;2022-08-21T01:45:01;98428.00;;;17.55
71960;BMP280;59832;51.146;14.024;2022-08-21T01:47:27;98429.09;;;17.54
71960;BMP280;59832;51.146;14.024;2022-08-21T01:49:54;98428.38;;;17.53
71960;BMP280;59832;51.146;14.024;2022-08-21T01:52:21;98430.66;;;17.48
71960;BMP280;59832;51.146;14.024;2022-08-21T01:54:47;98427.34;;;17.43
71960;BMP280;59832;51.146;14.024;2022-08-21T01:57:21;98428.50;;;17.43
71960;BMP280;59832;51.146;14.024;2022-08-21T01:59:51;98432.50;;;17.47
71960;BMP280;59832;51.146;14.024;2022-08-21T02:02:18;98429.63;;;17.42
71960;BMP280;59832;51.146;14.024;2022-08-21T02:04:44;98430.13;;;17.26
71960;BMP280;59832;51.146;14.024;2022-08-21T02:07:11;98426.06;;;17.25
71960;BMP280;59832;51.146;14.024;2022-08-21T02:09:37;98431.28;;;17.18
71960;BMP280;59832;51.146;14.024;2022-08-21T02:12:05;98420.72;;;17.05
71960;BMP280;59832;51.146;14.024;2022-08-21T02:14:32;98424.47;;;16.94
71960;BMP280;59832;51.146;14.024;2022-08-21T02:16:58;98415.34;;;16.89
71960;BMP280;59832;51.146;14.024;2022-08-21T02:19:34;98424.56;;;16.83
71960;BMP280;59832;51.146;14.024;2022-08-21T02:22:07;98419.41;;;16.83
71960;BMP280;59832;51.146;14.024;2022-08-21T02:24:33;98424.22;;;16.81
71960;BMP280;59832;51.146;14.024;2022-08-21T02:26:59;98415.41;;;16.78
71960;BMP280;59832;51.146;14.024;2022-08-21T02:29:26;98408.78;;;16.81
71960;BMP280;59832;51.146;14.024;2022-08-21T02:31:52;98410.25;;;16.78
71960;BMP280;59832;51.146;14.024;2022-08-21T02:34:19;98412.81;;;16.78
71960;BMP280;59832;51.146;14.024;2022-08-21T02:36:45;98411.72;;;16.79
71960;BMP280;59832;51.146;14.024;2022-08-21T02:39:24;98402.97;;;16.73
71960;BMP280;59832;51.146;14.024;2022-08-21T02:41:52;98408.47;;;16.68
71960;BMP280;59832;51.146;14.024;2022-08-21T02:44:19;98400.78;;;16.68
71960;BMP280;59832;51.146;14.024;2022-08-21T02:46:45;98405.91;;;16.68
71960;BMP280;59832;51.146;14.024;2022-08-21T02:49:12;98393.13;;;16.65
71960;BMP280;59832;51.146;14.024;2022-08-21T02:51:39;98394.94;;;16.64
71960;BMP280;59832;51.146;14.024;2022-08-21T02:54:06;98402.59;;;16.68
71960;BMP280;59832;51.146;14.024;2022-08-21T02:56:32;98398.94;;;16.69
71960;BMP280;59832;51.146;14.024;2022-08-21T02:58:59;98396.78;;;16.64
71960;BMP280;59832;51.146;14.024;2022-08-21T03:01:25;98397.53;;;16.64
71960;BMP280;59832;51.146;14.024;2022-08-21T03:03:53;98402.69;;;16.61
71960;BMP280;59832;51.146;14.024;2022-08-21T03:06:20;98394.94;;;16.64
71960;BMP280;59832;51.146;14.024;2022-08-21T03:08:47;98401.91;;;16.67
71960;BMP280;59832;51.146;14.024;2022-08-21T03:11:14;98403.00;;;16.66
71960;BMP280;59832;51.146;14.024;2022-08-21T03:13:41;98398.25;;;16.65
71960;BMP280;59832;51.146;14.024;2022-08-21T03:16:07;98400.44;;;16.63
71960;BMP280;59832;51.146;14.024;2022-08-21T03:18:35;98411.47;;;16.63
71960;BMP280;59832;51.146;14.024;2022-08-21T03:21:03;98418.81;;;16.65
71960;BMP280;59832;51.146;14.024;2022-08-21T03:23:30;98410.31;;;16.68
71960;BMP280;59832;51.146;14.024;2022-08-21T03:25:59;98416.94;;;16.69
71960;BMP280;59832;51.146;14.024;2022-08-21T03:28:26;98418.41;;;16.66
71960;BMP280;59832;51.146;14.024;2022-08-21T03:30:52;98419.56;;;16.58
71960;BMP280;59832;51.146;14.024;2022-08-21T03:33:19;98414.78;;;16.64
71960;BMP280;59832;51.146;14.024;2022-08-21T03:35:52;98416.97;;;16.65
71960;BMP280;59832;51.146;14.024;2022-08-21T03:38:21;98413.69;;;16.61
71960;BMP280;59832;51.146;14.024;2022-08-21T03:40:51;98420.28;;;16.59
71960;BMP280;59832;51.146;14.024;2022-08-21T03:43:18;98426.94;;;16.56
71960;BMP280;59832;51.146;14.024;2022-08-21T03:45:45;98425.84;;;16.50
71960;BMP280;59832;51.146;14.024;2022-08-21T03:48:12;98425.13;;;16.50
71960;BMP280;59832;51.146;14.024;2022-08-21T03:50:39;98424.78;;;16.48
71960;BMP280;59832;51.146;14.024;2022-08-21T03:53:07;98427.69;;;16.50
71960;BMP280;59832;51.146;14.024;2022-08-21T03:55:46;98430.63;;;16.52
71960;BMP280;59832;51.146;14.024;2022-08-21T03:58:14;98433.94;;;16.52
71960;BMP280;59832;51.146;14.024;2022-08-21T04:00:42;98424.00;;;16.54
71960;BMP280;59832;51.146;14.024;2022-08-21T04:03:09;98434.97;;;16.62
71960;BMP280;59832;51.146;14.024;2022-08-21T04:05:36;98437.56;;;16.62
71960;BMP280;59832;51.146;14.024;2022-08-21T04:08:04;98433.84;;;16.63
71960;BMP280;59832;51.146;14.024;2022-08-21T04:10:32;98438.63;;;16.64
71960;BMP280;59832;51.146;14.024;2022-08-21T04:12:59;98429.03;;;16.68
71960;BMP280;59832;51.146;14.024;2022-08-21T04:15:26;98440.78;;;16.73
71960;BMP280;59832;51.146;14.024;2022-08-21T04:17:52;98445.53;;;16.74
71960;BMP280;59832;51.146;14.024;2022-08-21T04:20:19;98451.06;;;16.73
71960;BMP280;59832;51.146;14.024;2022-08-21T04:22:46;98447.38;;;16.74
71960;BMP280;59832;51.146;14.024;2022-08-21T04:25:13;98445.53;;;16.74
71960;BMP280;59832;51.146;14.024;2022-08-21T04:27:40;98448.81;;;16.78
71960;BMP280;59832;51.146;14.024;2022-08-21T04:30:07;98445.88;;;16.80
71960;BMP280;59832;51.146;14.024;2022-08-21T04:32:36;98452.13;;;16.82
71960;BMP280;59832;51.146;14.024;2022-08-21T04:35:04;98448.41;;;16.83
71960;BMP280;59832;51.146;14.024;2022-08-21T04:37:31;98452.81;;;16.86
71960;BMP280;59832;51.146;14.024;2022-08-21T04:39:58;98456.44;;;16.93
71960;BMP280;59832;51.146;14.024;2022-08-21T04:42:25;98446.50;;;16.98
71960;BMP280;59832;51.146;14.024;2022-08-21T04:44:52;98443.53;;;17.00
71960;BMP280;59832;51.146;14.024;2022-08-21T04:47:19;98442.06;;;16.99
71960;BMP280;59832;51.146;14.024;2022-08-21T04:49:45;98446.47;;;17.02
71960;BMP280;59832;51.146;14.024;2022-08-21T04:52:13;98447.91;;;17.06
71960;BMP280;59832;51.146;14.024;2022-08-21T04:54:41;98444.63;;;17.02
71960;BMP280;59832;51.146;14.024;2022-08-21T04:57:09;98442.78;;;17.03
71960;BMP280;59832;51.146;14.024;2022-08-21T04:59:41;98451.22;;;17.03
71960;BMP280;59832;51.146;14.024;2022-08-21T05:02:08;98445.28;;;17.10
71960;BMP280;59832;51.146;14.024;2022-08-21T05:04:36;98449.69;;;17.13
71960;BMP280;59832;51.146;14.024;2022-08-21T05:07:05;98460.31;;;17.18
71960;BMP280;59832;51.146;14.024;2022-08-21T05:09:33;98460.63;;;17.24
71960;BMP280;59832;51.146;14.024;2022-08-21T05:12:01;98461.75;;;17.23
71960;BMP280;59832;51.146;14.024;2022-08-21T05:14:28;98454.03;;;17.23
71960;BMP280;59832;51.146;14.024;2022-08-21T05:16:54;98459.53;;;17.21
71960;BMP280;59832;51.146;14.024;2022-08-21T05:19:20;98458.13;;;17.17
71960;BMP280;59832;51.146;14.024;2022-08-21T05:21:47;98461.44;;;17.14
71960;BMP280;59832;51.146;14.024;2022-08-21T05:24:14;98461.06;;;17.15
71960;BMP280;59832;51.146;14.024;2022-08-21T05:26:40;98462.88;;;17.18
71960;BMP280;59832;51.146;14.024;2022-08-21T05:29:12;98465.84;;;17.17
71960;BMP280;59832;51.146;14.024;2022-08-21T05:31:38;98469.16;;;17.17
71960;BMP280;59832;51.146;14.024;2022-08-21T05:34:05;98471.28;;;17.19
71960;BMP280;59832;51.146;14.024;2022-08-21T05:36:31;98471.66;;;17.21
71960;BMP280;59832;51.146;14.024;2022-08-21T05:38:58;98469.81;;;17.21
71960;BMP280;59832;51.146;14.024;2022-08-21T05:41:24;98475.28;;;17.27
71960;BMP280;59832;51.146;14.024;2022-08-21T05:43:51;98464.31;;;17.23
71960;BMP280;59832;51.146;14.024;2022-08-21T05:46:17;98469.06;;;17.24
71960;BMP280;59832;51.146;14.024;2022-08-21T05:48:43;98467.22;;;17.25
71960;BMP280;59832;51.146;14.024;2022-08-21T05:51:11;98467.97;;;17.25
71960;BMP280;59832;51.146;14.024;2022-08-21T05:53:38;98480.78;;;17.29
71960;BMP280;59832;51.146;14.024;2022-08-21T05:56:05;98473.06;;;17.29
71960;BMP280;59832;51.146;14.024;2022-08-21T05:58:33;98480.38;;;17.34
71960;BMP280;59832;51.146;14.024;2022-08-21T06:01:00;98488.09;;;17.34
71960;BMP280;59832;51.146;14.024;2022-08-21T06:03:28;98483.69;;;17.34
71960;BMP280;59832;51.146;14.024;2022-08-21T06:05:55;98485.50;;;17.37
71960;BMP280;59832;51.146;14.024;2022-08-21T06:08:22;98487.69;;;17.39
71960;BMP280;59832;51.146;14.024;2022-08-21T06:10:49;98493.81;;;17.52
71960;BMP280;59832;51.146;14.024;2022-08-21T06:13:16;98489.84;;;17.48
71960;BMP280;59832;51.146;14.024;2022-08-21T06:15:43;98484.97;;;17.53
71960;BMP280;59832;51.146;14.024;2022-08-21T06:18:10;98475.06;;;17.55
71960;BMP280;59832;51.146;14.024;2022-08-21T06:20:36;98482.03;;;17.55
71960;BMP280;59832;51.146;14.024;2022-08-21T06:23:03;98476.88;;;17.55
71960;BMP280;59832;51.146;14.024;2022-08-21T06:25:30;98469.59;;;17.50
71960;BMP280;59832;51.146;14.024;2022-08-21T06:28:01;98464.44;;;17.50
71960;BMP280;59832;51.146;14.024;2022-08-21T06:30:27;98468.09;;;17.52
71960;BMP280;59832;51.146;14.024;2022-08-21T06:32:54;98463.28;;;17.54
71960;BMP280;59832;51.146;14.024;2022-08-21T06:35:20;98457.75;;;17.59
71960;BMP280;59832;51.146;14.024;2022-08-21T06:37:47;98467.97;;;17.63
71960;BMP280;59832;51.146;14.024;2022-08-21T06:40:13;98466.13;;;17.63
71960;BMP280;59832;51.146;14.024;2022-08-21T06:42:40;98473.44;;;17.72
71960;BMP280;59832;51.146;14.024;2022-08-21T06:45:16;98476.31;;;17.77
71960;BMP280;59832;51.146;14.024;2022-08-21T06:47:42;98472.97;;;17.80
71960;BMP280;59832;51.146;14.024;2022-08-21T06:50:09;98471.09;;;17.84
71960;BMP280;59832;51.146;14.024;2022-08-21T06:52:36;98458.50;;;17.93
71960;BMP280;59832;51.146;14.024;2022-08-21T06:55:04;98476.09;;;17.99
71960;BMP280;59832;51.146;14.024;2022-08-21T06:57:31;98476.25;;;18.18
71960;BMP280;59832;51.146;14.024;2022-08-21T06:59:57;98475.22;;;18.12
71960;BMP280;59832;51.146;14.024;2022-08-21T07:02:24;98485.44;;;18.16
71960;BMP280;59832;51.146;14.024;2022-08-21T07:04:50;98490.59;;;18.16
71960;BMP280;59832;51.146;14.024;2022-08-21T07:07:17;98484.81;;;18.08
71960;BMP280;59832;51.146;14.024;2022-08-21T07:09:43;98481.59;;;18.01
71960;BMP280;59832;51.146;14.024;2022-08-21T07:12:10;98469.91;;;17.92
71960;BMP280;59832;51.146;14.024;2022-08-21T07:14:37;98459.13;;;18.01
71960;BMP280;59832;51.146;14.024;2022-08-21T07:17:03;98464.69;;;18.00
71960;BMP280;59832;51.146;14.024;2022-08-21T07:19:29;98465.00;;;18.02
71960;BMP280;59832;51.146;14.024;2022-08-21T07:21:57;98454.69;;;18.05
71960;BMP280;59832;51.146;14.024;2022-08-21T07:24:24;98460.16;;;18.07
71960;BMP280;59832;51.146;14.024;2022-08-21T07:26:50;98465.69;;;18.06
71960;BMP280;59832;51.146;14.024;2022-08-21T07:29:17;98462.66;;;18.14
71960;BMP280;59832;51.146;14.024;2022-08-21T07:31:44;98468.25;;;18.09
71960;BMP280;59832;51.146;14.024;2022-08-21T07:34:11;98465.13;;;18.21
71960;BMP280;59832;51.146;14.024;2022-08-21T07:36:37;98472.50;;;18.49
71960;BMP280;59832;51.146;14.024;2022-08-21T07:39:04;98466.56;;;18.26
71960;BMP280;59832;51.146;14.024;2022-08-21T07:41:39;98475.22;;;18.39
71960;BMP280;59832;51.146;14.024;2022-08-21T07:44:05;98481.94;;;18.33
71960;BMP280;59832;51.146;14.024;2022-08-21T07:46:32;98488.19;;;18.32
71960;BMP280;59832;51.146;14.024;2022-08-21T07:48:58;98487.44;;;18.35
71960;BMP280;59832;51.146;14.024;2022-08-21T07:51:26;98481.28;;;18.25
71960;BMP280;59832;51.146;14.024;2022-08-21T07:53:54;98481.31;;;18.22
71960;BMP280;59832;51.146;14.024;2022-08-21T07:56:21;98485.00;;;18.24
71960;BMP280;59832;51.146;14.024;2022-08-21T07:58:47;98479.88;;;18.21
71960;BMP280;59832;51.146;14.024;2022-08-21T08:01:14;98489.44;;;18.20
71960;BMP280;59832;51.146;14.024;2022-08-21T08:03:40;98491.63;;;18.22
71960;BMP280;59832;51.146;14.024;2022-08-21T08:06:07;98490.53;;;18.23
71960;BMP280;59832;51.146;14.024;2022-08-21T08:08:38;98494.06;;;18.36
71960;BMP280;59832;51.146;14.024;2022-08-21T08:11:05;98491.22;;;18.27
71960;BMP280;59832;51.146;14.024;2022-08-21T08:13:37;98496.78;;;18.22
71960;BMP280;59832;51.146;14.024;2022-08-21T08:16:04;98484.63;;;18.22
71960;BMP280;59832;51.146;14.024;2022-08-21T08:18:30;98495.31;;;18.24
71960;BMP280;59832;51.146;14.024;2022-08-21T08:20:56;98490.00;;;18.35
71960;BMP280;59832;51.146;14.024;2022-08-21T08:23:23;98492.94;;;18.37
71960;BMP280;59832;51.146;14.024;2022-08-21T08:25:49;98498.34;;;18.46
71960;BMP280;59832;51.146;14.024;2022-08-21T08:28:16;98499.72;;;18.54
71960;BMP280;59832;51.146;14.024;2022-08-21T08:30:44;98500.69;;;18.64
71960;BMP280;59832;51.146;14.024;2022-08-21T08:33:10;98505.69;;;18.74
71960;BMP280;59832;51.146;14.024;2022-08-21T08:35:37;98504.47;;;18.82
71960;BMP280;59832;51.146;14.024;2022-08-21T08:38:04;98503.81;;;18.78
71960;BMP280;59832;51.146;14.024;2022-08-21T08:43:13;98501.47;;;18.87
71960;BMP280;59832;51.146;14.024;2022-08-21T08:45:40;98502.72;;;18.76
71960;BMP280;59832;51.146;14.024;2022-08-21T08:48:09;98498.56;;;18.82
71960;BMP280;59832;51.146;14.024;2022-08-21T08:50:41;98499.91;;;18.93
71960;BMP280;59832;51.146;14.024;2022-08-21T08:53:17;98503.25;;;18.90
71960;BMP280;59832;51.146;14.024;2022-08-21T08:55:44;98497.03;;;18.88
71960;BMP280;59832;51.146;14.024;2022-08-21T08:58:14;98499.91;;;18.93
71960;BMP280;59832;51.146;14.024;2022-08-21T09:00:44;98495.72;;;18.99
71960;BMP280;59832;51.146;14.024;2022-08-21T09:03:11;98495.00;;;18.99
71960;BMP280;59832;51.146;14.024;2022-08-21T09:05:55;98493.47;;;19.05
71960;BMP280;59832;51.146;14.024;2022-08-21T09:08:46;98485.94;;;19.14
71960;BMP280;59832;51.146;14.024;2022-08-21T09:13:56;98494.75;;;19.59
71960;BMP280;59832;51.146;14.024;2022-08-21T09:16:36;98493.91;;;19.46
71960;BMP280;59832;51.146;14.024;2022-08-21T09:19:22;98486.75;;;19.54
71960;BMP280;59832;51.146;14.024;2022-08-21T09:27:02;98475.66;;;19.34
71960;BMP280;59832;51.146;14.024;2022-08-21T09:29:30;98481.75;;;19.43
71960;BMP280;59832;51.146;14.024;2022-08-21T09:31:57;98478.25;;;19.53
71960;BMP280;59832;51.146;14.024;2022-08-21T09:34:25;98476.25;;;19.65
71960;BMP280;59832;51.146;14.024;2022-08-21T09:36:52;98466.81;;;19.54
71960;BMP280;59832;51.146;14.024;2022-08-21T09:39:52;98462.59;;;19.64
71960;BMP280;59832;51.146;14.024;2022-08-21T09:42:21;98460.44;;;19.79
71960;BMP280;59832;51.146;14.024;2022-08-21T09:44:48;98464.75;;;19.85
71960;BMP280;59832;51.146;14.024;2022-08-21T09:47:18;98453.59;;;19.72
71960;BMP280;59832;51.146;14.024;2022-08-21T09:49:48;98454.69;;;19.71
71960;BMP280;59832;51.146;14.024;2022-08-21T09:52:16;98460.00;;;19.84
71960;BMP280;59832;51.146;14.024;2022-08-21T09:54:44;98454.75;;;19.87
71960;BMP280;59832;51.146;14.024;2022-08-21T09:57:17;98452.16;;;20.07
71960;BMP280;59832;51.146;14.024;2022-08-21T10:00:18;98456.72;;;19.99
71960;BMP280;59832;51.146;14.024;2022-08-21T10:02:45;98458.69;;;20.11
71960;BMP280;59832;51.146;14.024;2022-08-21T10:05:19;98451.56;;;19.99
71960;BMP280;59832;51.146;14.024;2022-08-21T10:07:46;98458.06;;;20.07
71960;BMP280;59832;51.146;14.024;2022-08-21T10:10:14;98445.56;;;20.22
71960;BMP280;59832;51.146;14.024;2022-08-21T10:12:50;98450.16;;;20.14
71960;BMP280;59832;51.146;14.024;2022-08-21T10:15:36;98454.94;;;20.32
71960;BMP280;59832;51.146;14.024;2022-08-21T10:20:50;98460.28;;;20.41
71960;BMP280;59832;51.146;14.024;2022-08-21T10:26:05;98446.75;;;20.17
71960;BMP280;59832;51.146;14.024;2022-08-21T10:28:46;98448.53;;;20.20
71960;BMP280;59832;51.146;14.024;2022-08-21T10:31:23;98447.31;;;20.09
71960;BMP280;59832;51.146;14.024;2022-08-21T10:36:39;98448.59;;;20.01
71960;BMP280;59832;51.146;14.024;2022-08-21T10:39:15;98444.22;;;19.98
71960;BMP280;59832;51.146;14.024;2022-08-21T10:47:00;98442.97;;;20.22
71960;BMP280;59832;51.146;14.024;2022-08-21T10:52:05;98445.50;;;20.42
71960;BMP280;59832;51.146;14.024;2022-08-21T10:54:38;98449.44;;;20.46
71960;BMP280;59832;51.146;14.024;2022-08-21T10:57:13;98448.06;;;20.42
71960;BMP280;59832;51.146;14.024;2022-08-21T11:00:06;98450.66;;;20.42
71960;BMP280;59832;51.146;14.024;2022-08-21T11:05:11;98439.47;;;20.12
71960;BMP280;59832;51.146;14.024;2022-08-21T11:07:51;98448.94;;;20.19
71960;BMP280;59832;51.146;14.024;2022-08-21T11:10:22;98447.59;;;20.47
71960;BMP280;59832;51.146;14.024;2022-08-21T11:12:59;98451.06;;;20.72
71960;BMP280;59832;51.146;14.024;2022-08-21T11:18:15;98450.03;;;20.86
71960;BMP280;59832;51.146;14.024;2022-08-21T11:20:46;98456.06;;;20.96
71960;BMP280;59832;51.146;14.024;2022-08-21T11:23:50;98451.50;;;21.00
71960;BMP280;59832;51.146;14.024;2022-08-21T11:26:09;98448.88;;;21.16
71960;BMP280;59832;51.146;14.024;2022-08-21T11:28:41;98444.56;;;21.13
71960;BMP280;59832;51.146;14.024;2022-08-21T11:31:22;98446.41;;;21.12
71960;BMP280;59832;51.146;14.024;2022-08-21T11:34:01;98445.91;;;21.17
71960;BMP280;59832;51.146;14.024;2022-08-21T11:36:36;98440.72;;;20.56
71960;BMP280;59832;51.146;14.024;2022-08-21T11:41:39;98441.78;;;20.43
71960;BMP280;59832;51.146;14.024;2022-08-21T11:44:13;98447.69;;;20.59
71960;BMP280;59832;51.146;14.024;2022-08-21T11:46:49;98441.44;;;20.73
71960;BMP280;59832;51.146;14.024;2022-08-21T11:49:23;98427.75;;;20.89
71960;BMP280;59832;51.146;14.024;2022-08-21T11:52:13;98438.53;;;21.03
71960;BMP280;59832;51.146;14.024;2022-08-21T11:57:18;98438.06;;;20.76
71960;BMP280;59832;51.146;14.024;2022-08-21T11:59:52;98440.66;;;20.60
71960;BMP280;59832;51.146;14.024;2022-08-21T12:02:21;98433.84;;;20.82
71960;BMP280;59832;51.146;14.024;2022-08-21T12:04:55;98427.69;;;20.92
71960;BMP280;59832;51.146;14.024;2022-08-21T12:07:37;98444.59;;;20.64
71960;BMP280;59832;51.146;14.024;2022-08-21T12:10:06;98435.66;;;20.69
71960;BMP280;59832;51.146;14.024;2022-08-21T12:12:34;98439.69;;;20.70
71960;BMP280;59832;51.146;14.024;2022-08-21T12:15:23;98440.47;;;20.83
71960;BMP280;59832;51.146;14.024;2022-08-21T12:17:54;98427.19;;;20.97
71960;BMP280;59832;51.146;14.024;2022-08-21T12:22:55;98431.31;;;21.23
71960;BMP280;59832;51.146;14.024;2022-08-21T12:25:36;98423.06;;;21.28
71960;BMP280;59832;51.146;14.024;2022-08-21T12:28:08;98429.38;;;21.27
71960;BMP280;59832;51.146;14.024;2022-08-21T12:30:36;98423.28;;;21.34
71960;BMP280;59832;51.146;14.024;2022-08-21T12:33:05;98422.78;;;21.52
71960;BMP280;59832;51.146;14.024;2022-08-21T12:35:35;98428.81;;;21.61
71960;BMP280;59832;51.146;14.024;2022-08-21T12:38:07;98431.31;;;21.65
71960;BMP280;59832;51.146;14.024;2022-08-21T12:40:42;98430.16;;;21.53
71960;BMP280;59832;51.146;14.024;2022-08-21T12:43:16;98419.41;;;21.67
71960;BMP280;59832;51.146;14.024;2022-08-21T12:45:45;98421.19;;;21.83
71960;BMP280;59832;51.146;14.024;2022-08-21T12:48:20;98412.38;;;21.80
71960;BMP280;59832;51.146;14.024;2022-08-21T12:50:51;98417.34;;;21.87
71960;BMP280;59832;51.146;14.024;2022-08-21T12:53:53;98419.66;;;21.98
71960;BMP280;59832;51.146;14.024;2022-08-21T12:56:12;98416.72;;;22.09
71960;BMP280;59832;51.146;14.024;2022-08-21T12:58:48;98410.50;;;21.81
71960;BMP280;59832;51.146;14.024;2022-08-21T13:01:28;98412.84;;;21.50
71960;BMP280;59832;51.146;14.024;2022-08-21T13:03:57;98410.09;;;21.70
71960;BMP280;59832;51.146;14.024;2022-08-21T13:06:32;98404.50;;;21.71
71960;BMP280;59832;51.146;14.024;2022-08-21T13:09:04;98401.81;;;21.75
71960;BMP280;59832;51.146;14.024;2022-08-21T13:11:32;98398.25;;;21.69
71960;BMP280;59832;51.146;14.024;2022-08-21T13:13:59;98395.59;;;21.97
71960;BMP280;59832;51.146;14.024;2022-08-21T13:16:30;98393.50;;;22.05
71960;BMP280;59832;51.146;14.024;2022-08-21T13:19:02;98394.75;;;22.13
71960;BMP280;59832;51.146;14.024;2022-08-21T13:21:34;98391.72;;;22.15
71960;BMP280;59832;51.146;14.024;2022-08-21T13:24:34;98395.75;;;22.41
71960;BMP280;59832;51.146;14.024;2022-08-21T13:27:17;98398.00;;;22.39
71960;BMP280;59832;51.146;14.024;2022-08-21T13:29:43;98390.56;;;22.41
71960;BMP280;59832;51.146;14.024;2022-08-21T13:32:22;98385.63;;;22.43
71960;BMP280;59832;51.146;14.024;2022-08-21T13:34:50;98383.88;;;22.52
71960;BMP280;59832;51.146;14.024;2022-08-21T13:37:19;98391.59;;;22.65
71960;BMP280;59832;51.146;14.024;2022-08-21T13:39:53;98383.41;;;22.32
71960;BMP280;59832;51.146;14.024;2022-08-21T13:42:20;98388.50;;;22.57
71960;BMP280;59832;51.146;14.024;2022-08-21T13:44:46;98393.22;;;22.72
71960;BMP280;59832;51.146;14.024;2022-08-21T13:47:14;98384.13;;;22.89
71960;BMP280;59832;51.146;14.024;2022-08-21T13:49:47;98389.19;;;22.71
71960;BMP280;59832;51.146;14.024;2022-08-21T13:54:51;98385.88;;;22.36
71960;BMP280;59832;51.146;14.024;2022-08-21T13:57:19;98382.88;;;22.37
71960;BMP280;59832;51.146;14.024;2022-08-21T13:59:45;98384.66;;;22.28
71960;BMP280;59832;51.146;14.024;2022-08-21T14:02:16;98374.03;;;22.47
71960;BMP280;59832;51.146;14.024;2022-08-21T14:07:19;98388.59;;;22.67
71960;BMP280;59832;51.146;14.024;2022-08-21T14:09:47;98381.09;;;22.69
71960;BMP280;59832;51.146;14.024;2022-08-21T14:12:17;98386.91;;;22.73
71960;BMP280;59832;51.146;14.024;2022-08-21T14:14:49;98381.94;;;22.87
71960;BMP280;59832;51.146;14.024;2022-08-21T14:17:26;98384.72;;;23.14
71960;BMP280;59832;51.146;14.024;2022-08-21T14:19:58;98375.69;;;23.19
71960;BMP280;59832;51.146;14.024;2022-08-21T14:22:29;98385.22;;;23.31
71960;BMP280;59832;51.146;14.024;2022-08-21T14:24:59;98380.81;;;23.10
71960;BMP280;59832;51.146;14.024;2022-08-21T14:27:28;98377.13;;;22.98
71960;BMP280;59832;51.146;14.024;2022-08-21T14:29:57;98378.44;;;23.03
71960;BMP280;59832;51.146;14.024;2022-08-21T14:32:25;98383.47;;;22.76
71960;BMP280;59832;51.146;14.024;2022-08-21T14:34:53;98385.13;;;22.35
71960;BMP280;59832;51.146;14.024;2022-08-21T14:37:21;98376.84;;;22.40
71960;BMP280;59832;51.146;14.024;2022-08-21T14:39:48;98381.34;;;22.15
71960;BMP280;59832;51.146;14.024;2022-08-21T14:42:15;98393.00;;;21.85
71960;BMP280;59832;51.146;14.024;2022-08-21T14:44:41;98383.47;;;21.82
71960;BMP280;59832;51.146;14.024;2022-08-21T14:47:08;98379.06;;;21.91
71960;BMP280;59832;51.146;14.024;2022-08-21T14:49:34;98384.69;;;22.03
71960;BMP280;59832;51.146;14.024;2022-08-21T14:52:01;98381.25;;;22.18
71960;BMP280;59832;51.146;14.024;2022-08-21T14:54:28;98392.03;;;22.04